Time;durP1;ratioP1;P1;durP2;ratioP2;P2;SDS_P1;SDS_P2;PMS_P1;PMS_P2;Temp;Humidity;BMP_temperature;BMP_pressure;BME280_temperature;BME280_humidity;BME280_pressure;Samples;Min_cycle;Max_cycle;Signal;HPM_P1;HPM_P2
2022/12/29 00:01:59;;;;;;;3.77;1.90;;;;;;;-145.18;100.00;46732.66;6182153;23;20017;-73
2022/12/29 00:04:24;;;;;;;2.40;1.80;;;;;;;-145.18;100.00;46726.81;6156071;23;20005;-73
2022/12/29 00:06:52;;;;;;;3.77;2.00;;;;;;;-145.18;100.00;46732.66;6182644;23;20001;-73
2022/12/29 00:09:17;;;;;;;2.93;2.03;;;;;;;-145.18;100.00;46726.81;6182486;23;20075;-72
2022/12/29 00:11:43;;;;;;;2.53;1.63;;;;;;;-145.18;100.00;46728.75;6182249;23;20017;-72
2022/12/29 00:16:54;;;;;;;2.87;1.53;;;;;;;-145.18;100.00;46734.63;6181892;23;20627;-73
2022/12/29 00:35:50;;;;;;;2.93;1.37;;;;;;;-145.18;100.00;46728.75;6182707;23;20100;-73
2022/12/29 00:46:28;;;;;;;3.73;1.13;;;;;;;-145.18;100.00;46728.75;6182277;23;20240;-73
2022/12/29 00:51:37;;;;;;;4.27;1.10;;;;;;;-145.18;100.00;46724.84;6182231;23;20016;-73
2022/12/29 00:54:02;;;;;;;2.33;0.83;;;;;;;-145.18;100.00;46724.84;6182123;23;20096;-73
2022/12/29 00:56:28;;;;;;;2.63;1.00;;;;;;;-145.18;100.00;46734.63;6182095;23;20009;-73
2022/12/29 00:58:53;;;;;;;2.13;0.93;;;;;;;-145.18;100.00;46726.81;6182515;23;20517;-73
2022/12/29 01:01:18;;;;;;;1.33;0.73;;;;;;;-145.18;100.00;46715.09;6181623;23;20013;-73
2022/12/29 01:03:44;;;;;;;3.53;1.10;;;;;;;-145.18;100.00;46720.94;6182077;23;20020;-73
2022/12/29 01:06:11;;;;;;;3.60;1.20;;;;;;;-145.18;100.00;46720.94;6181759;23;20055;-73
2022/12/29 01:08:36;;;;;;;1.70;1.10;;;;;;;-145.18;100.00;46717.03;6182098;23;20013;-73
2022/12/29 01:11:07;;;;;;;2.33;0.90;;;;;;;-145.18;100.00;46722.91;6181890;23;20776;-74
2022/12/29 01:13:33;;;;;;;1.90;0.97;;;;;;;-145.18;100.00;46717.03;6182338;23;20378;-73
2022/12/29 01:15:58;;;;;;;2.30;1.00;;;;;;;-145.18;100.00;46717.03;6181806;23;20012;-73
2022/12/29 01:18:25;;;;;;;2.67;1.20;;;;;;;-145.18;100.00;46719.00;6181922;23;20637;-73
2022/12/29 01:20:51;;;;;;;1.67;1.17;;;;;;;-145.18;100.00;46717.03;6182169;23;20017;-73
2022/12/29 01:23:16;;;;;;;3.73;1.77;;;;;;;-145.18;100.00;46715.09;6181278;23;20051;-73
2022/12/29 01:25:42;;;;;;;3.03;1.00;;;;;;;-145.18;100.00;46715.09;6182312;23;20442;-73
2022/12/29 01:28:08;;;;;;;2.73;1.13;;;;;;;-145.18;100.00;46717.03;6181679;23;20024;-73
2022/12/29 01:30:34;;;;;;;2.03;1.23;;;;;;;-145.18;100.00;46707.28;6178119;23;20005;-73
2022/12/29 01:33:00;;;;;;;4.13;1.40;;;;;;;-145.18;100.00;46717.03;6181956;23;20429;-74
2022/12/29 01:35:25;;;;;;;3.20;1.30;;;;;;;-145.18;100.00;46713.13;6181838;23;20009;-73
2022/12/29 01:37:51;;;;;;;3.93;1.27;;;;;;;-145.18;100.00;46715.09;6155522;23;20009;-73
2022/12/29 01:40:16;;;;;;;4.90;1.57;;;;;;;-145.18;100.00;46713.13;6182117;23;20012;-73
2022/12/29 01:42:41;;;;;;;3.43;1.47;;;;;;;-145.18;100.00;46705.31;6181859;23;20096;-73
2022/12/29 01:45:16;;;;;;;3.40;1.10;;;;;;;-145.18;100.00;46715.09;6183392;23;20152;-73
2022/12/29 01:47:45;;;;;;;1.63;1.00;;;;;;;-145.18;100.00;46715.09;6183440;23;20076;-73
2022/12/29 01:50:24;;;;;;;5.43;1.27;;;;;;;-145.18;100.00;46703.38;6180736;23;20005;-73
2022/12/29 01:53:01;;;;;;;2.87;1.10;;;;;;;-145.18;100.00;46707.28;6183204;23;20008;-73
2022/12/29 01:55:31;;;;;;;2.17;0.90;;;;;;;-145.18;100.00;46717.03;6183709;23;20449;-73
2022/12/29 01:58:00;;;;;;;2.63;1.27;;;;;;;-145.18;100.00;46715.09;6181451;23;20064;-73
2022/12/29 02:00:26;;;;;;;4.10;0.80;;;;;;;-145.18;100.00;46719.00;6183579;23;20005;-73
2022/12/29 02:02:53;;;;;;;3.13;0.70;;;;;;;-145.18;100.00;46720.94;6183178;23;20021;-74
2022/12/29 02:05:28;;;;;;;4.97;0.80;;;;;;;-145.18;100.00;46722.91;6183576;23;20001;-74
2022/12/29 02:07:54;;;;;;;1.95;0.47;;;;;;;-145.18;100.00;46720.94;6156664;23;20009;-73
2022/12/29 02:10:23;;;;;;;4.23;0.77;;;;;;;-145.18;100.00;46732.66;6183020;23;20316;-74
2022/12/29 02:12:48;;;;;;;2.83;1.00;;;;;;;-145.18;100.00;46738.53;6183191;23;20016;-73
2022/12/29 02:15:15;;;;;;;3.87;0.57;;;;;;;-145.18;100.00;46728.75;6183279;23;20009;-74
2022/12/29 02:17:46;;;;;;;1.83;0.30;;;;;;;-145.18;100.00;46734.63;6182389;23;20024;-73
2022/12/29 02:20:33;;;;;;;0.60;0.40;;;;;;;-145.18;100.00;46736.56;6180263;23;20268;-73
2022/12/29 02:23:31;;;;;;;3.50;0.90;;;;;;;-145.18;100.00;46726.81;6182927;23;20012;-73
2022/12/29 02:26:03;;;;;;;2.37;0.70;;;;;;;-145.18;100.00;46728.75;6157392;23;20005;-73
2022/12/29 02:28:34;;;;;;;1.40;0.70;;;;;;;-145.18;100.00;46728.75;6183153;23;20342;-73
2022/12/29 02:31:05;;;;;;;3.70;1.03;;;;;;;-145.18;100.00;46726.81;6183727;23;20001;-73
2022/12/29 02:33:55;;;;;;;5.80;1.00;;;;;;;-145.18;100.00;46728.75;6183297;23;20032;-73
2022/12/29 02:36:21;;;;;;;3.73;1.07;;;;;;;-145.18;100.00;46726.81;6183530;23;20002;-73
2022/12/29 02:39:23;;;;;;;2.67;0.97;;;;;;;-145.18;100.00;46728.75;6183362;23;20010;-73
2022/12/29 02:41:55;;;;;;;2.97;0.80;;;;;;;-145.18;100.00;46728.75;6183112;23;20036;-73
2022/12/29 02:44:50;;;;;;;2.70;0.47;;;;;;;-145.18;100.00;46732.66;6183141;23;20063;-74
2022/12/29 02:47:54;;;;;;;4.73;0.70;;;;;;;-145.18;100.00;46722.91;6156669;23;20097;-74
2022/12/29 02:50:28;;;;;;;5.63;0.70;;;;;;;-145.18;100.00;46732.66;6183440;23;20001;-74
2022/12/29 02:53:05;;;;;;;2.70;0.50;;;;;;;-145.18;100.00;46726.81;6183276;23;20001;-73
2022/12/29 02:55:30;;;;;;;2.97;0.57;;;;;;;-145.18;100.00;46728.75;6183084;23;19997;-73
2022/12/29 02:58:17;;;;;;;3.90;0.57;;;;;;;-145.18;100.00;46728.75;6183239;23;20017;-73
2022/12/29 03:04:02;;;;;;;3.13;1.48;;;;;;;-145.18;100.00;46728.75;6144511;23;20088;-74
2022/12/29 03:06:35;;;;;;;4.83;0.60;;;;;;;-145.18;100.00;46726.81;6129785;23;20028;-74
2022/12/29 03:09:25;;;;;;;4.50;0.90;;;;;;;-145.18;100.00;46726.81;6151265;23;20335;-74
2022/12/29 03:18:06;;;;;;;2.20;0.70;;;;;;;-145.18;100.00;46728.75;6153259;23;20025;-73
2022/12/29 03:20:41;;;;;;;4.30;1.23;;;;;;;-145.18;100.00;46724.84;6153269;23;20010;-73
2022/12/29 03:23:07;;;;;;;4.53;1.33;;;;;;;-145.18;100.00;46724.84;6153424;23;20312;-73
2022/12/29 03:25:42;;;;;;;4.27;1.20;;;;;;;-145.18;100.00;46722.91;6153147;23;20012;-73
2022/12/29 03:28:12;;;;;;;3.17;1.10;;;;;;;-145.18;100.00;46726.81;6152663;23;20457;-73
2022/12/29 03:30:40;;;;;;;2.40;1.07;;;;;;;-145.18;100.00;46726.81;6153498;23;20316;-74
2022/12/29 03:33:10;;;;;;;4.17;1.37;;;;;;;-145.18;100.00;46720.94;6153111;23;20012;-73
2022/12/29 03:35:38;;;;;;;3.07;1.10;;;;;;;-145.18;100.00;46722.91;6153052;23;20080;-73
2022/12/29 03:38:14;;;;;;;4.03;1.30;;;;;;;-145.18;100.00;46720.94;6153062;23;20335;-73
2022/12/29 03:40:43;;;;;;;2.70;1.10;;;;;;;-145.18;100.00;46724.84;6153081;23;20027;-73
2022/12/29 03:43:10;;;;;;;6.20;1.00;;;;;;;-145.18;100.00;46728.75;6153086;23;20008;-73
2022/12/29 03:45:35;;;;;;;4.23;1.10;;;;;;;-145.18;100.00;46728.75;6152969;23;20532;-73
2022/12/29 03:48:01;;;;;;;7.73;1.50;;;;;;;-145.18;100.00;46734.63;6152870;23;20018;-73
2022/12/29 03:50:26;;;;;;;4.83;0.83;;;;;;;-145.18;100.00;46734.63;6153117;23;20016;-73
2022/12/29 03:52:51;;;;;;;8.20;1.33;;;;;;;-145.18;100.00;46734.63;6152830;23;20018;-73
2022/12/29 03:55:17;;;;;;;9.20;1.17;;;;;;;-145.18;100.00;46738.53;6152982;23;20061;-73
2022/12/29 03:57:42;;;;;;;8.13;1.07;;;;;;;-145.18;100.00;46734.63;6152392;23;20037;-73
2022/12/29 04:00:08;;;;;;;5.20;1.03;;;;;;;-145.18;100.00;46740.47;6153391;23;20355;-73
2022/12/29 04:02:34;;;;;;;12.67;1.00;;;;;;;-145.18;100.00;46726.81;6153051;23;20044;-73
2022/12/29 04:04:59;;;;;;;8.60;1.10;;;;;;;-145.18;100.00;46709.22;6152957;23;20018;-73
2022/12/29 04:07:24;;;;;;;4.10;0.80;;;;;;;-145.18;100.00;46703.38;6150731;23;20018;-73
2022/12/29 04:09:50;;;;;;;12.00;2.10;;;;;;;-145.18;100.00;46699.47;6152495;23;20005;-73
2022/12/29 04:12:16;;;;;;;8.40;1.00;;;;;;;-145.18;100.00;46689.69;6153154;23;20066;-73
2022/12/29 04:14:41;;;;;;;5.47;1.00;;;;;;;-145.18;100.00;46691.66;6152677;23;20449;-73
2022/12/29 04:17:06;;;;;;;5.77;0.70;;;;;;;-145.18;100.00;46695.56;6153205;23;20010;-73
2022/12/29 04:19:32;;;;;;;7.73;1.03;;;;;;;-145.18;100.00;46687.75;6152230;23;20444;-73
2022/12/29 04:21:57;;;;;;;10.23;1.23;;;;;;;-145.18;100.00;46681.88;6152969;23;20029;-73
2022/12/29 04:24:23;;;;;;;7.47;1.00;;;;;;;-145.18;100.00;46681.88;6152885;23;20014;-73
2022/12/29 04:26:48;;;;;;;3.90;0.70;;;;;;;-145.18;100.00;46693.59;6152864;23;20009;-72
2022/12/29 04:29:14;;;;;;;5.87;0.80;;;;;;;-145.18;100.00;46697.50;6152380;23;20064;-73
2022/12/29 04:31:39;;;;;;;5.00;0.80;;;;;;;-145.18;100.00;46703.38;6152825;23;20013;-73
2022/12/29 04:34:04;;;;;;;6.07;1.33;;;;;;;-145.18;100.00;46701.41;6152604;23;20006;-73
2022/12/29 04:36:30;;;;;;;6.90;1.20;;;;;;;-145.18;100.00;46699.47;6152874;23;20037;-73
2022/12/29 04:38:55;;;;;;;10.03;1.17;;;;;;;-145.18;100.00;46689.69;6152542;23;20005;-73
2022/12/29 04:41:20;;;;;;;9.40;1.10;;;;;;;-145.18;100.00;46691.66;6152626;23;20006;-73
2022/12/29 04:43:46;;;;;;;6.20;0.97;;;;;;;-145.18;100.00;46687.75;6152387;23;20027;-73
2022/12/29 04:46:11;;;;;;;13.87;1.53;;;;;;;-145.18;100.00;46695.56;6152869;23;20063;-73
2022/12/29 04:48:37;;;;;;;12.13;1.60;;;;;;;-145.18;100.00;46701.41;6152173;23;20009;-73
2022/12/29 04:51:02;;;;;;;8.70;1.00;;;;;;;-145.18;100.00;46699.47;6152882;23;20519;-74
2022/12/29 04:53:27;;;;;;;8.97;1.10;;;;;;;-145.18;100.00;46699.47;6152085;23;20005;-73
2022/12/29 04:55:53;;;;;;;9.63;1.83;;;;;;;-145.18;100.00;46703.38;6152677;23;20422;-73
2022/12/29 04:58:19;;;;;;;10.93;1.27;;;;;;;-145.18;100.00;46699.47;6152569;23;20052;-73
2022/12/29 05:00:45;;;;;;;10.63;1.10;;;;;;;-145.18;100.00;46693.59;6152383;23;20005;-73
2022/12/29 05:03:10;;;;;;;9.17;1.00;;;;;;;-145.18;100.00;46695.56;6151920;23;20255;-73
2022/12/29 05:05:36;;;;;;;8.37;1.30;;;;;;;-145.18;100.00;46691.66;6152484;23;20501;-73
2022/12/29 05:08:01;;;;;;;7.47;1.00;;;;;;;-145.18;100.00;46683.84;6152085;23;20014;-73
2022/12/29 05:10:26;;;;;;;9.03;1.50;;;;;;;-145.18;100.00;46683.84;6152548;23;20431;-73
2022/12/29 05:12:52;;;;;;;7.90;1.20;;;;;;;-145.18;100.00;46679.94;6152079;23;20001;-74
2022/12/29 05:15:17;;;;;;;9.07;1.77;;;;;;;-145.18;100.00;46674.06;6152602;23;20395;-73
2022/12/29 05:17:43;;;;;;;11.60;1.93;;;;;;;-145.18;100.00;46650.63;6152156;23;20017;-73
2022/12/29 05:20:09;;;;;;;8.30;1.37;;;;;;;-145.18;100.00;46660.41;6151988;23;20037;-73
2022/12/29 05:22:34;;;;;;;8.03;1.63;;;;;;;-145.18;100.00;46660.41;6152741;23;20327;-73
2022/12/29 05:25:00;;;;;;;9.33;1.87;;;;;;;-145.18;100.00;46660.41;6151783;23;20005;-72
2022/12/29 05:27:25;;;;;;;8.77;1.30;;;;;;;-145.18;100.00;46660.41;6151851;23;20017;-73
2022/12/29 05:29:51;;;;;;;6.83;1.30;;;;;;;-145.18;100.00;46660.41;6151485;23;20013;-73
2022/12/29 05:32:16;;;;;;;11.20;1.60;;;;;;;-145.18;100.00;46660.41;6149638;23;20087;-73
2022/12/29 05:34:41;;;;;;;7.00;1.17;;;;;;;-145.18;100.00;46644.78;6151464;23;20068;-73
2022/12/29 05:37:07;;;;;;;14.37;1.53;;;;;;;-145.18;100.00;46652.59;6152366;23;20009;-73
2022/12/29 05:39:32;;;;;;;9.93;1.37;;;;;;;-145.18;100.00;46660.41;6151114;23;20010;-73
2022/12/29 05:41:58;;;;;;;7.03;1.73;;;;;;;-145.18;100.00;46666.25;6152242;23;20064;-73
2022/12/29 05:44:23;;;;;;;13.87;1.30;;;;;;;-145.18;100.00;46662.34;6151638;23;20006;-73
2022/12/29 05:46:48;;;;;;;8.37;1.70;;;;;;;-145.18;100.00;46677.97;6151837;23;20014;-73
2022/12/29 05:49:14;;;;;;;12.80;1.57;;;;;;;-145.18;100.00;46674.06;6151653;23;20014;-73
2022/12/29 05:51:39;;;;;;;6.77;1.40;;;;;;;-145.18;100.00;46677.97;6151645;23;20060;-73
2022/12/29 05:54:05;;;;;;;11.43;1.53;;;;;;;-145.18;100.00;46677.97;6150567;23;20016;-73
2022/12/29 05:56:30;;;;;;;7.13;1.43;;;;;;;-145.18;100.00;46687.75;6151395;23;20346;-73
2022/12/29 05:58:55;;;;;;;9.03;1.20;;;;;;;-145.18;100.00;46677.97;6151969;23;20425;-73
2022/12/29 06:01:21;;;;;;;18.80;1.50;;;;;;;-145.18;100.00;46672.13;6152491;23;20032;-73
2022/12/29 06:03:46;;;;;;;7.43;1.23;;;;;;;-145.18;100.00;46656.50;6151352;23;20055;-73
2022/12/29 06:06:11;;;;;;;13.80;1.90;;;;;;;-145.18;100.00;46658.44;6152007;23;20025;-73
2022/12/29 06:08:37;;;;;;;11.70;1.87;;;;;;;-145.18;100.00;46656.50;6151786;23;20021;-73
2022/12/29 06:11:02;;;;;;;9.87;1.50;;;;;;;-145.18;100.00;46662.34;6150699;23;20496;-73
2022/12/29 06:13:28;;;;;;;8.77;1.17;;;;;;;-145.18;100.00;46648.69;6151817;23;20022;-73
2022/12/29 06:15:53;;;;;;;8.00;2.33;;;;;;;-145.18;100.00;46656.50;6152218;23;20044;-73
2022/12/29 06:18:19;;;;;;;11.03;2.53;;;;;;;-145.18;100.00;46654.53;6151851;23;20328;-73
2022/12/29 06:20:44;;;;;;;9.77;1.70;;;;;;;-145.18;100.00;46650.63;6151911;23;20066;-73
2022/12/29 06:23:11;;;;;;;11.90;1.60;;;;;;;-145.18;100.00;46644.78;6151943;23;20360;-73
2022/12/29 06:25:37;;;;;;;11.00;1.73;;;;;;;-145.18;100.00;46644.78;6152153;23;20013;-73
2022/12/29 06:28:02;;;;;;;12.70;1.40;;;;;;;-145.18;100.00;46640.88;6151872;23;20044;-73
2022/12/29 06:30:28;;;;;;;11.63;1.50;;;;;;;-145.18;100.00;46640.88;6150272;23;20009;-73
2022/12/29 06:32:54;;;;;;;11.53;1.80;;;;;;;-145.18;100.00;46642.81;6153888;23;20005;-73
2022/12/29 06:35:21;;;;;;;12.10;1.30;;;;;;;-145.18;100.00;46648.69;6153896;23;20335;-73
2022/12/29 06:37:46;;;;;;;13.20;1.63;;;;;;;-145.18;100.00;46652.59;6153883;23;20010;-73
2022/12/29 06:40:12;;;;;;;9.97;1.73;;;;;;;-145.18;100.00;46646.72;6153530;23;20447;-74
2022/12/29 06:42:37;;;;;;;13.13;1.80;;;;;;;-145.18;100.00;46650.63;6152152;23;20029;-73
2022/12/29 06:45:03;;;;;;;8.20;1.47;;;;;;;-145.18;100.00;46638.91;6153881;23;20037;-73
2022/12/29 06:47:28;;;;;;;10.63;1.73;;;;;;;-145.18;100.00;46644.78;6153860;23;20009;-73
2022/12/29 06:49:54;;;;;;;7.80;1.47;;;;;;;-145.18;100.00;46638.91;6153086;23;20009;-73
2022/12/29 06:52:19;;;;;;;6.87;1.00;;;;;;;-145.18;100.00;46636.94;6153961;23;20009;-73
2022/12/29 06:54:44;;;;;;;9.83;1.10;;;;;;;-145.18;100.00;46636.94;6151323;23;20060;-73
2022/12/29 06:57:10;;;;;;;5.43;1.10;;;;;;;-145.18;100.00;46660.41;6152956;23;20005;-73
2022/12/29 06:59:35;;;;;;;7.43;0.90;;;;;;;-145.18;100.00;46660.41;6153030;23;20105;-73
2022/12/29 07:02:01;;;;;;;8.00;1.33;;;;;;;-145.18;100.00;46660.41;6153363;23;20129;-73
2022/12/29 07:04:27;;;;;;;9.13;1.60;;;;;;;-145.18;100.00;46660.41;6144831;23;20025;-73
2022/12/29 07:06:53;;;;;;;5.77;1.43;;;;;;;-145.18;100.00;46660.41;6151612;23;20037;-73
2022/12/29 07:09:19;;;;;;;9.30;1.70;;;;;;;-145.18;100.00;46660.41;6152978;23;20100;-73
2022/12/29 07:11:44;;;;;;;9.37;1.63;;;;;;;-145.18;100.00;46660.41;6153033;23;20005;-74
2022/12/29 07:14:11;;;;;;;11.87;1.60;;;;;;;-145.18;100.00;46691.66;6152365;23;20105;-73
2022/12/29 07:16:36;;;;;;;15.40;1.67;;;;;;;-145.18;100.00;46724.84;6153426;23;20367;-73
2022/12/29 07:19:02;;;;;;;14.50;1.90;;;;;;;-145.18;100.00;46734.63;6152580;23;20244;-73
2022/12/29 07:21:27;;;;;;;8.57;1.43;;;;;;;-145.18;100.00;46734.63;6152707;23;20390;-73
2022/12/29 07:23:53;;;;;;;14.13;3.50;;;;;;;-145.18;100.00;46734.63;6152210;23;20022;-73
2022/12/29 07:26:19;;;;;;;13.00;2.00;;;;;;;-145.18;100.00;46736.56;6151788;23;20475;-73
2022/12/29 07:28:45;;;;;;;6.97;1.20;;;;;;;-145.18;100.00;46715.09;6151611;23;20262;-73
2022/12/29 07:31:19;;;;;;;11.97;1.30;;;;;;;-145.18;100.00;46709.22;6151463;23;20454;-72
2022/12/29 07:33:45;;;;;;;9.60;1.97;;;;;;;-145.18;100.00;46685.78;6150888;23;20002;-73
2022/12/29 07:36:12;;;;;;;11.07;1.60;;;;;;;-145.18;100.00;46664.31;6152427;23;20561;-73
2022/12/29 07:38:38;;;;;;;13.90;2.70;;;;;;;-145.18;100.00;46660.41;6152243;23;20228;-73
2022/12/29 07:41:03;;;;;;;10.23;1.60;;;;;;;-145.18;100.00;46660.41;6152624;23;20010;-73
2022/12/29 07:43:28;;;;;;;14.60;1.97;;;;;;;-145.18;100.00;46660.41;6147990;23;20010;-73
2022/12/29 07:45:54;;;;;;;9.10;1.50;;;;;;;-145.18;100.00;46660.41;6152391;23;20117;-73
2022/12/29 07:48:19;;;;;;;13.37;2.00;;;;;;;-145.18;100.00;46660.41;6152190;23;20009;-73
2022/12/29 07:50:45;;;;;;;13.60;1.37;;;;;;;-145.18;100.00;46636.94;6151760;23;20346;-73
2022/12/29 07:53:10;;;;;;;15.57;1.77;;;;;;;-145.18;100.00;46646.72;6152714;23;20084;-73
2022/12/29 07:55:36;;;;;;;11.17;1.77;;;;;;;-145.18;100.00;46650.63;6152323;23;20014;-72
2022/12/29 07:58:01;;;;;;;11.23;2.13;;;;;;;-145.18;100.00;46654.53;6152583;23;20355;-73
2022/12/29 08:00:26;;;;;;;17.80;2.00;;;;;;;-145.18;100.00;46658.44;6151978;23;20461;-73
2022/12/29 08:02:52;;;;;;;16.03;3.07;;;;;;;-145.18;100.00;46666.25;6152083;23;20013;-73
2022/12/29 08:05:17;;;;;;;11.03;1.73;;;;;;;-145.18;100.00;46668.22;6151704;23;20017;-73
2022/12/29 08:07:44;;;;;;;12.27;1.93;;;;;;;-145.18;100.00;46658.44;6151905;23;20021;-73
2022/12/29 08:10:10;;;;;;;12.83;1.87;;;;;;;-145.18;100.00;46656.50;6151857;23;20005;-73
2022/12/29 08:12:38;;;;;;;25.33;4.40;;;;;;;-145.18;100.00;46660.41;6152508;23;20056;-73
2022/12/29 08:15:05;;;;;;;13.47;2.93;;;;;;;-145.18;100.00;46660.41;6152469;23;20362;-73
2022/12/29 08:17:30;;;;;;;12.80;1.57;;;;;;;-145.18;100.00;46658.44;6152523;23;20224;-72
2022/12/29 08:19:55;;;;;;;14.23;2.40;;;;;;;-145.18;100.00;46658.44;6147913;23;20006;-72
2022/12/29 08:22:21;;;;;;;19.07;2.13;;;;;;;-145.18;100.00;46654.53;6152088;23;20013;-73
2022/12/29 08:24:46;;;;;;;12.50;2.00;;;;;;;-145.18;100.00;46652.59;6152198;23;20887;-73
2022/12/29 08:27:12;;;;;;;8.67;1.47;;;;;;;-145.18;100.00;46652.59;6152120;23;20072;-73
2022/12/29 08:29:37;;;;;;;18.70;2.70;;;;;;;-145.18;100.00;46658.44;6152220;23;20009;-73
2022/12/29 08:32:03;;;;;;;12.03;1.70;;;;;;;-145.18;100.00;46658.44;6152388;23;20013;-73
2022/12/29 08:34:31;;;;;;;13.43;1.60;;;;;;;-145.18;100.00;46646.72;6152411;23;20002;-73
2022/12/29 08:36:56;;;;;;;13.30;2.00;;;;;;;-145.18;100.00;46642.81;6152716;23;20080;-73
2022/12/29 08:39:21;;;;;;;11.57;1.67;;;;;;;-145.18;100.00;46638.91;6152156;23;20052;-73
2022/12/29 08:41:47;;;;;;;12.53;1.80;;;;;;;-145.18;100.00;46636.94;6151740;23;20010;-73
2022/12/29 08:44:12;;;;;;;16.03;2.10;;;;;;;-145.18;100.00;46660.41;6152431;23;20056;-73
2022/12/29 08:46:38;;;;;;;12.40;1.80;;;;;;;-145.18;100.00;46660.41;6151963;23;20006;-73
2022/12/29 08:49:03;;;;;;;13.67;1.63;;;;;;;-145.18;100.00;46658.44;6151818;23;20068;-73
2022/12/29 08:51:29;;;;;;;10.57;1.50;;;;;;;-145.18;100.00;46660.41;6152438;23;20013;-73
2022/12/29 08:53:54;;;;;;;12.53;1.63;;;;;;;-145.18;100.00;46660.41;6151618;23;20099;-73
2022/12/29 08:56:20;;;;;;;14.33;1.83;;;;;;;-145.18;100.00;46660.41;6152171;23;20013;-73
2022/12/29 08:58:46;;;;;;;21.13;1.67;;;;;;;-145.18;100.00;46660.41;6151641;23;20072;-73
2022/12/29 09:01:11;;;;;;;14.07;1.53;;;;;;;-145.18;100.00;46660.41;6151657;23;20088;-73
2022/12/29 09:03:37;;;;;;;17.10;2.17;;;;;;;-145.18;100.00;46660.41;6151415;23;20014;-73
2022/12/29 09:06:03;;;;;;;11.03;1.50;;;;;;;-145.18;100.00;46660.41;6152514;23;20017;-73
2022/12/29 09:08:28;;;;;;;10.63;2.43;;;;;;;-145.18;100.00;46660.41;6152101;23;20056;-73
2022/12/29 09:10:53;;;;;;;8.07;1.80;;;;;;;-145.18;100.00;46658.44;6151492;23;20014;-73
2022/12/29 09:13:19;;;;;;;12.13;1.90;;;;;;;-145.18;100.00;46660.41;6152043;23;20017;-73
2022/12/29 09:15:44;;;;;;;10.43;2.23;;;;;;;-145.18;100.00;46660.41;6151720;23;20013;-73
2022/12/29 09:18:10;;;;;;;9.13;2.33;;;;;;;-145.18;100.00;46654.53;6152270;23;20017;-73
2022/12/29 09:20:36;;;;;;;12.17;1.83;;;;;;;-145.18;100.00;46689.69;6151552;23;20010;-73
2022/12/29 09:23:02;;;;;;;13.20;2.77;;;;;;;-145.18;100.00;46705.31;6152244;23;20319;-73
2022/12/29 09:25:28;;;;;;;14.93;1.90;;;;;;;-145.18;100.00;46732.66;6152060;23;20394;-73
2022/12/29 09:27:54;;;;;;;12.97;2.40;;;;;;;-145.18;100.00;46736.56;6151902;23;20013;-73
2022/12/29 09:30:22;;;;;;;7.37;1.83;;;;;;;-145.18;100.00;46736.56;6149905;23;20009;-73
2022/12/29 09:32:48;;;;;;;11.63;1.70;;;;;;;-145.18;100.00;46732.66;6151802;23;20231;-73
2022/12/29 09:35:15;;;;;;;11.70;2.30;;;;;;;-145.18;100.00;46726.81;6151727;23;20455;-73
2022/12/29 09:37:40;;;;;;;12.30;1.77;;;;;;;-145.18;100.00;46732.66;6152214;23;20231;-72
2022/12/29 09:40:07;;;;;;;15.67;2.07;;;;;;;-145.18;100.00;46732.66;6151751;23;20231;-73
2022/12/29 09:42:45;;;;;;;16.80;1.90;;;;;;;-145.18;100.00;46726.81;6151305;23;20010;-73
2022/12/29 09:45:16;;;;;;;13.87;2.30;;;;;;;-145.18;100.00;46726.81;6151720;23;20298;-73
2022/12/29 09:47:43;;;;;;;11.93;1.87;;;;;;;-145.18;100.00;46720.94;6148956;23;20397;-73
2022/12/29 09:50:26;;;;;;;12.10;2.20;;;;;;;-145.18;100.00;46720.94;6151021;23;20310;-73
2022/12/29 09:53:13;;;;;;;10.67;1.97;;;;;;;-145.18;100.00;46719.00;6150551;23;20227;-73
2022/12/29 09:55:44;;;;;;;12.90;1.73;;;;;;;-145.18;100.00;46722.91;6151209;23;20669;-72
2022/12/29 09:58:19;;;;;;;13.53;2.10;;;;;;;-145.18;100.00;46720.94;6150157;23;20271;-73
2022/12/29 10:00:58;;;;;;;13.73;2.90;;;;;;;-145.18;100.00;46719.00;6150895;23;20314;-73
2022/12/29 10:03:32;;;;;;;14.23;3.37;;;;;;;-145.18;100.00;46715.09;6150979;23;20014;-73
2022/12/29 10:06:31;;;;;;;14.57;2.50;;;;;;;-145.18;100.00;46717.03;6152897;23;20687;-72
2022/12/29 10:09:32;;;;;;;9.63;2.57;;;;;;;-145.18;100.00;46715.09;6153238;23;20255;-73
2022/12/29 10:12:31;;;;;;;12.30;2.40;;;;;;;-145.18;100.00;46717.03;6153482;23;20311;-72
2022/12/29 10:15:02;;;;;;;13.57;3.00;;;;;;;-145.18;100.00;46713.13;6152918;23;20228;-72
2022/12/29 10:17:39;;;;;;;16.00;3.33;;;;;;;-145.18;100.00;46719.00;6153130;23;20219;-72
2022/12/29 10:20:05;;;;;;;14.73;3.37;;;;;;;-145.18;100.00;46715.09;6153468;23;20242;-72
2022/12/29 10:22:54;;;;;;;24.27;3.67;;;;;;;-145.18;100.00;46715.09;6153784;23;20628;-72
2022/12/29 10:25:24;;;;;;;14.57;2.47;;;;;;;-145.18;100.00;46711.19;6153380;23;20014;-72
2022/12/29 10:27:51;;;;;;;17.60;3.47;;;;;;;-145.18;100.00;46707.28;6151459;23;20248;-72
2022/12/29 10:30:18;;;;;;;15.93;3.80;;;;;;;-145.18;100.00;46711.19;6152902;23;20706;-73
2022/12/29 10:32:52;;;;;;;16.70;2.93;;;;;;;-145.18;100.00;46715.09;6152806;23;20330;-72
2022/12/29 10:35:22;;;;;;;20.07;3.47;;;;;;;-145.18;100.00;46715.09;6152788;23;20280;-72
2022/12/29 10:37:50;;;;;;;26.33;4.23;;;;;;;-145.18;100.00;46715.09;6152735;23;20230;-72
2022/12/29 10:40:20;;;;;;;14.23;2.93;;;;;;;-145.18;100.00;46717.03;6153305;23;20231;-72
2022/12/29 10:42:51;;;;;;;15.63;3.40;;;;;;;-145.18;100.00;46719.00;6152777;23;20267;-73
2022/12/29 10:45:18;;;;;;;23.40;4.17;;;;;;;-145.18;100.00;46715.09;6152054;23;20673;-73
2022/12/29 10:48:08;;;;;;;17.33;2.93;;;;;;;-145.18;100.00;46713.13;6152405;23;20236;-73
2022/12/29 10:50:34;;;;;;;19.47;3.30;;;;;;;-145.18;100.00;46709.22;6151965;23;20230;-73
2022/12/29 10:53:04;;;;;;;23.37;3.80;;;;;;;-145.18;100.00;46705.31;6153240;23;20267;-73
2022/12/29 10:55:36;;;;;;;14.57;3.60;;;;;;;-145.18;100.00;46705.31;6151896;23;20063;-73
2022/12/29 10:58:05;;;;;;;20.47;4.13;;;;;;;-145.18;100.00;46703.38;6153246;23;20306;-72
2022/12/29 11:00:32;;;;;;;15.97;3.57;;;;;;;-145.18;100.00;46705.31;6153295;23;20260;-72
2022/12/29 11:03:13;;;;;;;14.37;3.47;;;;;;;-145.18;100.00;46705.31;6152837;23;20613;-72
2022/12/29 11:05:38;;;;;;;14.17;3.67;;;;;;;-145.18;100.00;46705.31;6152907;23;20224;-72
2022/12/29 11:08:11;;;;;;;17.77;3.67;;;;;;;-145.18;100.00;46707.28;6153594;23;20254;-72
2022/12/29 11:10:40;;;;;;;14.17;3.43;;;;;;;-145.18;100.00;46705.31;6152317;23;20001;-72
2022/12/29 11:13:24;;;;;;;25.33;3.77;;;;;;;-145.18;100.00;46705.31;6151561;23;20549;-73
2022/12/29 11:15:50;;;;;;;21.17;4.90;;;;;;;-145.18;100.00;46703.38;6151833;23;20238;-73
2022/12/29 11:18:38;;;;;;;21.40;3.10;;;;;;;-145.18;100.00;46699.47;6127100;23;20302;-73
2022/12/29 11:21:27;;;;;;;22.50;3.13;;;;;;;-145.18;100.00;46699.47;6152800;23;20239;-73
2022/12/29 11:24:25;;;;;;;17.17;2.47;;;;;;;-145.18;100.00;46701.41;6153011;23;20681;-73
2022/12/29 11:26:57;;;;;;;25.23;3.40;;;;;;;-145.18;100.00;46699.47;6152748;23;20228;-73
2022/12/29 11:29:26;;;;;;;19.97;4.60;;;;;;;-145.18;100.00;46703.38;6152668;23;20259;-73
2022/12/29 11:31:55;;;;;;;17.43;2.87;;;;;;;-145.18;100.00;46699.47;6152994;23;20005;-72
2022/12/29 11:34:41;;;;;;;26.87;3.63;;;;;;;-145.18;100.00;46707.28;6153393;23;20219;-72
2022/12/29 11:37:12;;;;;;;15.20;3.37;;;;;;;-145.18;100.00;46707.28;6152862;23;20084;-72
2022/12/29 11:40:03;;;;;;;22.13;3.03;;;;;;;-145.18;100.00;46707.28;6151321;23;20010;-72
2022/12/29 11:42:35;;;;;;;16.87;3.43;;;;;;;-145.18;100.00;46705.31;6152761;23;20431;-72
2022/12/29 11:45:06;;;;;;;21.33;2.50;;;;;;;-145.18;100.00;46701.41;6152457;23;20303;-72
2022/12/29 11:47:33;;;;;;;14.43;2.60;;;;;;;-145.18;100.00;46687.75;6152557;23;20001;-71
2022/12/29 11:50:06;;;;;;;14.23;2.83;;;;;;;-145.18;100.00;46676.03;6152786;23;20012;-72
2022/12/29 11:52:35;;;;;;;16.03;2.57;;;;;;;-145.18;100.00;46648.69;6150870;23;20009;-72